sensor_id;sensor_type;location;lat;lon;timestamp;temperature;humidity
20570;DHT22;10443;54.818;9.666;2022-11-20T00:01:26;2.30;99.90
20570;DHT22;10443;54.818;9.666;2022-11-20T00:03:55;2.30;99.90
20570;DHT22;10443;54.818;9.666;2022-11-20T00:06:23;2.40;99.90
20570;DHT22;10443;54.818;9.666;2022-11-20T00:08:51;2.40;99.90
20570;DHT22;10443;54.818;9.666;2022-11-20T00:11:20;2.30;99.90
20570;DHT22;10443;54.818;9.666;2022-11-20T00:13:50;2.40;99.90
20570;DHT22;10443;54.818;9.666;2022-11-20T00:16:20;2.40;99.90
20570;DHT22;10443;54.818;9.666;2022-11-20T00:18:48;2.40;99.90
20570;DHT22;10443;54.818;9.666;2022-11-20T00:21:18;2.40;99.90
20570;DHT22;10443;54.818;9.666;2022-11-20T00:23:48;2.40;99.90
20570;DHT22;10443;54.818;9.666;2022-11-20T00:26:18;2.40;99.90
20570;DHT22;10443;54.818;9.666;2022-11-20T00:28:51;2.40;99.90
20570;DHT22;10443;54.818;9.666;2022-11-20T00:31:19;2.40;99.90
20570;DHT22;10443;54.818;9.666;2022-11-20T00:33:46;2.40;99.90
20570;DHT22;10443;54.818;9.666;2022-11-20T00:36:19;2.40;99.90
20570;DHT22;10443;54.818;9.666;2022-11-20T00:38:47;2.30;99.90
20570;DHT22;10443;54.818;9.666;2022-11-20T00:41:17;2.30;99.90
20570;DHT22;10443;54.818;9.666;2022-11-20T00:43:45;2.30;99.90
20570;DHT22;10443;54.818;9.666;2022-11-20T00:46:20;2.30;99.90
20570;DHT22;10443;54.818;9.666;2022-11-20T00:48:48;2.30;99.90
20570;DHT22;10443;54.818;9.666;2022-11-20T00:51:21;2.30;99.90
20570;DHT22;10443;54.818;9.666;2022-11-20T00:53:49;2.30;99.90
20570;DHT22;10443;54.818;9.666;2022-11-20T00:56:19;2.30;99.90
20570;DHT22;10443;54.818;9.666;2022-11-20T00:58:48;2.30;99.90
20570;DHT22;10443;54.818;9.666;2022-11-20T01:01:21;2.30;99.90
20570;DHT22;10443;54.818;9.666;2022-11-20T01:03:53;2.30;99.90
20570;DHT22;10443;54.818;9.666;2022-11-20T01:06:24;2.30;99.90
20570;DHT22;10443;54.818;9.666;2022-11-20T01:08:55;2.20;99.90
20570;DHT22;10443;54.818;9.666;2022-11-20T01:11:24;1.90;99.90
20570;DHT22;10443;54.818;9.666;2022-11-20T01:13:52;2.20;99.90
20570;DHT22;10443;54.818;9.666;2022-11-20T01:16:21;2.30;99.90
20570;DHT22;10443;54.818;9.666;2022-11-20T01:18:49;2.30;99.90
20570;DHT22;10443;54.818;9.666;2022-11-20T01:21:31;2.20;99.90
20570;DHT22;10443;54.818;9.666;2022-11-20T01:23:58;2.20;99.90
20570;DHT22;10443;54.818;9.666;2022-11-20T01:26:31;2.20;99.90
20570;DHT22;10443;54.818;9.666;2022-11-20T01:28:59;2.30;99.90
20570;DHT22;10443;54.818;9.666;2022-11-20T01:31:33;2.20;99.90
20570;DHT22;10443;54.818;9.666;2022-11-20T01:34:02;2.30;99.90
20570;DHT22;10443;54.818;9.666;2022-11-20T01:36:31;2.30;99.90
20570;DHT22;10443;54.818;9.666;2022-11-20T01:39:21;2.20;99.90
20570;DHT22;10443;54.818;9.666;2022-11-20T01:41:47;2.20;99.90
20570;DHT22;10443;54.818;9.666;2022-11-20T01:44:52;2.30;99.90
20570;DHT22;10443;54.818;9.666;2022-11-20T01:47:32;2.30;99.90
20570;DHT22;10443;54.818;9.666;2022-11-20T01:50:06;2.20;99.90
20570;DHT22;10443;54.818;9.666;2022-11-20T01:52:47;2.20;99.90
20570;DHT22;10443;54.818;9.666;2022-11-20T01:55:20;2.20;99.90
20570;DHT22;10443;54.818;9.666;2022-11-20T01:57:48;2.10;99.90
20570;DHT22;10443;54.818;9.666;2022-11-20T02:00:17;2.10;99.90
20570;DHT22;10443;54.818;9.666;2022-11-20T02:02:51;2.10;99.90
20570;DHT22;10443;54.818;9.666;2022-11-20T02:07:50;2.10;99.90
20570;DHT22;10443;54.818;9.666;2022-11-20T02:10:17;2.10;99.90
20570;DHT22;10443;54.818;9.666;2022-11-20T02:12:43;2.10;99.90
20570;DHT22;10443;54.818;9.666;2022-11-20T02:15:29;2.20;99.90
20570;DHT22;10443;54.818;9.666;2022-11-20T02:17:56;2.20;99.90
20570;DHT22;10443;54.818;9.666;2022-11-20T02:20:22;2.20;99.90
20570;DHT22;10443;54.818;9.666;2022-11-20T02:25:42;2.30;99.90
20570;DHT22;10443;54.818;9.666;2022-11-20T02:28:10;2.30;99.90
20570;DHT22;10443;54.818;9.666;2022-11-20T02:30:36;2.30;99.90
20570;DHT22;10443;54.818;9.666;2022-11-20T02:33:03;2.30;99.90
20570;DHT22;10443;54.818;9.666;2022-11-20T02:37:59;2.30;99.90
20570;DHT22;10443;54.818;9.666;2022-11-20T02:40:26;2.20;99.90
20570;DHT22;10443;54.818;9.666;2022-11-20T02:42:53;2.20;99.90
20570;DHT22;10443;54.818;9.666;2022-11-20T02:45:20;2.20;99.90
20570;DHT22;10443;54.818;9.666;2022-11-20T02:47:47;2.10;99.90
20570;DHT22;10443;54.818;9.666;2022-11-20T02:50:14;2.10;99.90
20570;DHT22;10443;54.818;9.666;2022-11-20T02:52:40;2.10;99.90
20570;DHT22;10443;54.818;9.666;2022-11-20T02:55:07;2.10;99.90
20570;DHT22;10443;54.818;9.666;2022-11-20T02:57:34;2.10;99.90
20570;DHT22;10443;54.818;9.666;2022-11-20T03:00:01;2.00;99.90
20570;DHT22;10443;54.818;9.666;2022-11-20T03:02:30;2.00;99.90
20570;DHT22;10443;54.818;9.666;2022-11-20T03:04:57;2.00;99.90
20570;DHT22;10443;54.818;9.666;2022-11-20T03:07:24;2.00;99.90
20570;DHT22;10443;54.818;9.666;2022-11-20T03:09:51;2.00;99.90
20570;DHT22;10443;54.818;9.666;2022-11-20T03:12:17;2.00;99.90
20570;DHT22;10443;54.818;9.666;2022-11-20T03:14:44;2.00;99.90
20570;DHT22;10443;54.818;9.666;2022-11-20T03:17:18;2.00;99.90
20570;DHT22;10443;54.818;9.666;2022-11-20T03:19:44;2.00;99.90
20570;DHT22;10443;54.818;9.666;2022-11-20T03:22:11;2.00;99.90
20570;DHT22;10443;54.818;9.666;2022-11-20T03:24:37;2.00;99.90
20570;DHT22;10443;54.818;9.666;2022-11-20T03:27:04;2.00;99.90
20570;DHT22;10443;54.818;9.666;2022-11-20T03:29:30;2.00;99.90
20570;DHT22;10443;54.818;9.666;2022-11-20T03:31:57;2.00;99.90
20570;DHT22;10443;54.818;9.666;2022-11-20T03:34:24;2.00;99.90
20570;DHT22;10443;54.818;9.666;2022-11-20T03:36:50;2.00;99.90
20570;DHT22;10443;54.818;9.666;2022-11-20T03:39:17;2.00;99.90
20570;DHT22;10443;54.818;9.666;2022-11-20T03:41:43;2.00;99.90
20570;DHT22;10443;54.818;9.666;2022-11-20T03:44:11;2.10;99.90
20570;DHT22;10443;54.818;9.666;2022-11-20T03:46:38;2.10;99.90
20570;DHT22;10443;54.818;9.666;2022-11-20T03:49:05;2.20;99.90
20570;DHT22;10443;54.818;9.666;2022-11-20T03:51:34;2.20;99.90
20570;DHT22;10443;54.818;9.666;2022-11-20T03:56:32;2.20;99.90
20570;DHT22;10443;54.818;9.666;2022-11-20T03:58:59;2.20;99.90
20570;DHT22;10443;54.818;9.666;2022-11-20T04:01:28;2.20;99.90
20570;DHT22;10443;54.818;9.666;2022-11-20T04:03:56;2.20;99.90
20570;DHT22;10443;54.818;9.666;2022-11-20T04:06:26;2.20;99.90
20570;DHT22;10443;54.818;9.666;2022-11-20T04:08:57;2.20;99.90
20570;DHT22;10443;54.818;9.666;2022-11-20T04:11:32;2.20;99.90
20570;DHT22;10443;54.818;9.666;2022-11-20T04:14:02;2.30;99.90
20570;DHT22;10443;54.818;9.666;2022-11-20T04:16:31;2.30;99.90
20570;DHT22;10443;54.818;9.666;2022-11-20T04:18:59;2.30;99.90
20570;DHT22;10443;54.818;9.666;2022-11-20T04:21:26;2.30;99.90
20570;DHT22;10443;54.818;9.666;2022-11-20T04:23:53;2.20;99.90
20570;DHT22;10443;54.818;9.666;2022-11-20T04:26:22;2.20;99.90
20570;DHT22;10443;54.818;9.666;2022-11-20T04:28:49;2.20;99.90
20570;DHT22;10443;54.818;9.666;2022-11-20T04:31:18;2.20;99.90
20570;DHT22;10443;54.818;9.666;2022-11-20T04:33:45;2.20;99.90
20570;DHT22;10443;54.818;9.666;2022-11-20T04:36:14;2.20;99.90
20570;DHT22;10443;54.818;9.666;2022-11-20T04:38:41;2.20;99.90
20570;DHT22;10443;54.818;9.666;2022-11-20T04:41:16;2.20;99.90
20570;DHT22;10443;54.818;9.666;2022-11-20T04:43:50;2.30;99.90
20570;DHT22;10443;54.818;9.666;2022-11-20T04:46:18;2.30;99.90
20570;DHT22;10443;54.818;9.666;2022-11-20T04:48:46;2.40;99.90
20570;DHT22;10443;54.818;9.666;2022-11-20T04:51:13;2.30;99.90
20570;DHT22;10443;54.818;9.666;2022-11-20T04:53:39;2.30;99.90
20570;DHT22;10443;54.818;9.666;2022-11-20T04:56:08;2.30;99.90
20570;DHT22;10443;54.818;9.666;2022-11-20T04:58:35;2.30;99.90
20570;DHT22;10443;54.818;9.666;2022-11-20T05:03:43;2.10;99.90
20570;DHT22;10443;54.818;9.666;2022-11-20T05:06:11;2.10;99.90
20570;DHT22;10443;54.818;9.666;2022-11-20T05:08:39;2.10;99.90
20570;DHT22;10443;54.818;9.666;2022-11-20T05:11:09;2.00;99.90
20570;DHT22;10443;54.818;9.666;2022-11-20T05:13:36;2.00;99.90
20570;DHT22;10443;54.818;9.666;2022-11-20T05:16:08;2.00;99.90
20570;DHT22;10443;54.818;9.666;2022-11-20T05:18:35;1.90;99.90
20570;DHT22;10443;54.818;9.666;2022-11-20T05:21:02;2.00;99.90
20570;DHT22;10443;54.818;9.666;2022-11-20T05:23:30;1.90;99.90
20570;DHT22;10443;54.818;9.666;2022-11-20T05:25:58;1.90;99.90
20570;DHT22;10443;54.818;9.666;2022-11-20T05:28:27;1.90;99.90
20570;DHT22;10443;54.818;9.666;2022-11-20T05:30:54;1.80;99.90
20570;DHT22;10443;54.818;9.666;2022-11-20T05:33:21;1.80;99.90
20570;DHT22;10443;54.818;9.666;2022-11-20T05:35:48;1.80;99.90
20570;DHT22;10443;54.818;9.666;2022-11-20T05:38:15;1.80;99.90
20570;DHT22;10443;54.818;9.666;2022-11-20T05:40:42;1.70;99.90
20570;DHT22;10443;54.818;9.666;2022-11-20T05:43:08;1.70;99.90
20570;DHT22;10443;54.818;9.666;2022-11-20T05:45:35;1.70;99.90
20570;DHT22;10443;54.818;9.666;2022-11-20T05:48:02;1.70;99.90
20570;DHT22;10443;54.818;9.666;2022-11-20T05:50:29;1.70;99.90
20570;DHT22;10443;54.818;9.666;2022-11-20T05:52:58;1.60;99.90
20570;DHT22;10443;54.818;9.666;2022-11-20T05:55:26;1.60;99.90
20570;DHT22;10443;54.818;9.666;2022-11-20T05:57:53;1.50;99.90
20570;DHT22;10443;54.818;9.666;2022-11-20T06:00:21;1.50;99.90
20570;DHT22;10443;54.818;9.666;2022-11-20T06:02:47;1.50;99.90
20570;DHT22;10443;54.818;9.666;2022-11-20T06:05:14;1.50;99.90
20570;DHT22;10443;54.818;9.666;2022-11-20T06:07:41;1.40;99.90
20570;DHT22;10443;54.818;9.666;2022-11-20T06:10:08;1.40;99.90
20570;DHT22;10443;54.818;9.666;2022-11-20T06:12:35;1.40;99.90
20570;DHT22;10443;54.818;9.666;2022-11-20T06:15:01;1.40;99.90
20570;DHT22;10443;54.818;9.666;2022-11-20T06:17:28;1.40;99.90
20570;DHT22;10443;54.818;9.666;2022-11-20T06:19:54;1.40;99.90
20570;DHT22;10443;54.818;9.666;2022-11-20T06:22:21;1.30;99.90
20570;DHT22;10443;54.818;9.666;2022-11-20T06:24:48;1.30;99.90
20570;DHT22;10443;54.818;9.666;2022-11-20T06:27:15;1.30;99.90
20570;DHT22;10443;54.818;9.666;2022-11-20T06:29:41;1.30;99.90
20570;DHT22;10443;54.818;9.666;2022-11-20T06:32:08;1.30;99.90
20570;DHT22;10443;54.818;9.666;2022-11-20T06:34:35;1.20;99.90
20570;DHT22;10443;54.818;9.666;2022-11-20T06:37:01;1.30;99.90
20570;DHT22;10443;54.818;9.666;2022-11-20T06:39:28;1.30;99.90
20570;DHT22;10443;54.818;9.666;2022-11-20T06:41:54;1.30;99.90
20570;DHT22;10443;54.818;9.666;2022-11-20T06:44:25;1.30;99.90
20570;DHT22;10443;54.818;9.666;2022-11-20T06:46:51;1.30;99.90
20570;DHT22;10443;54.818;9.666;2022-11-20T06:49:18;1.40;99.90
20570;DHT22;10443;54.818;9.666;2022-11-20T06:51:45;1.50;99.90
20570;DHT22;10443;54.818;9.666;2022-11-20T06:54:11;1.50;99.90
20570;DHT22;10443;54.818;9.666;2022-11-20T06:56:38;1.50;99.90
20570;DHT22;10443;54.818;9.666;2022-11-20T06:59:06;1.60;99.90
20570;DHT22;10443;54.818;9.666;2022-11-20T07:01:33;1.60;99.90
20570;DHT22;10443;54.818;9.666;2022-11-20T07:03:59;1.60;99.90
20570;DHT22;10443;54.818;9.666;2022-11-20T07:06:26;1.60;99.90
20570;DHT22;10443;54.818;9.666;2022-11-20T07:08:53;1.60;99.90
20570;DHT22;10443;54.818;9.666;2022-11-20T07:11:20;1.60;99.90
20570;DHT22;10443;54.818;9.666;2022-11-20T07:13:47;1.70;99.90
20570;DHT22;10443;54.818;9.666;2022-11-20T07:16:14;1.70;99.90
20570;DHT22;10443;54.818;9.666;2022-11-20T07:18:42;1.70;99.90
20570;DHT22;10443;54.818;9.666;2022-11-20T07:21:16;1.70;99.90
20570;DHT22;10443;54.818;9.666;2022-11-20T07:23:43;1.80;99.90
20570;DHT22;10443;54.818;9.666;2022-11-20T07:26:11;1.80;99.90
20570;DHT22;10443;54.818;9.666;2022-11-20T07:28:38;1.80;99.90
20570;DHT22;10443;54.818;9.666;2022-11-20T07:31:06;1.80;99.90
20570;DHT22;10443;54.818;9.666;2022-11-20T07:33:43;1.90;99.90
20570;DHT22;10443;54.818;9.666;2022-11-20T07:36:10;1.90;99.90
20570;DHT22;10443;54.818;9.666;2022-11-20T07:38:38;1.80;99.90
20570;DHT22;10443;54.818;9.666;2022-11-20T07:41:05;2.00;99.90
20570;DHT22;10443;54.818;9.666;2022-11-20T07:43:32;1.80;99.90
20570;DHT22;10443;54.818;9.666;2022-11-20T07:46:06;1.80;99.90
20570;DHT22;10443;54.818;9.666;2022-11-20T07:48:33;1.80;99.90
20570;DHT22;10443;54.818;9.666;2022-11-20T07:51:00;1.80;99.90
20570;DHT22;10443;54.818;9.666;2022-11-20T07:53:26;1.70;99.90
20570;DHT22;10443;54.818;9.666;2022-11-20T07:55:53;1.70;99.90
20570;DHT22;10443;54.818;9.666;2022-11-20T07:58:21;1.70;99.90
20570;DHT22;10443;54.818;9.666;2022-11-20T08:00:48;1.70;99.90
20570;DHT22;10443;54.818;9.666;2022-11-20T08:03:15;1.70;99.90
20570;DHT22;10443;54.818;9.666;2022-11-20T08:05:49;1.70;99.90
20570;DHT22;10443;54.818;9.666;2022-11-20T08:08:16;1.80;99.90
20570;DHT22;10443;54.818;9.666;2022-11-20T08:10:43;1.80;99.90
20570;DHT22;10443;54.818;9.666;2022-11-20T08:13:10;1.80;99.90
20570;DHT22;10443;54.818;9.666;2022-11-20T08:15:56;1.90;99.90
20570;DHT22;10443;54.818;9.666;2022-11-20T08:18:22;1.80;99.90
20570;DHT22;10443;54.818;9.666;2022-11-20T08:20:58;1.80;99.90
20570;DHT22;10443;54.818;9.666;2022-11-20T08:23:27;1.80;99.90
20570;DHT22;10443;54.818;9.666;2022-11-20T08:25:54;1.90;99.90
20570;DHT22;10443;54.818;9.666;2022-11-20T08:28:21;1.90;99.90
20570;DHT22;10443;54.818;9.666;2022-11-20T08:30:49;1.90;99.90
20570;DHT22;10443;54.818;9.666;2022-11-20T08:33:17;1.90;99.90
20570;DHT22;10443;54.818;9.666;2022-11-20T08:35:45;1.90;99.90
20570;DHT22;10443;54.818;9.666;2022-11-20T08:38:11;1.90;99.90
20570;DHT22;10443;54.818;9.666;2022-11-20T08:40:38;1.90;99.90
20570;DHT22;10443;54.818;9.666;2022-11-20T08:43:05;1.80;99.90
20570;DHT22;10443;54.818;9.666;2022-11-20T08:45:32;1.80;99.90
20570;DHT22;10443;54.818;9.666;2022-11-20T08:48:04;1.80;99.90
20570;DHT22;10443;54.818;9.666;2022-11-20T08:50:31;2.00;99.90
20570;DHT22;10443;54.818;9.666;2022-11-20T08:53:04;1.80;99.90
20570;DHT22;10443;54.818;9.666;2022-11-20T08:55:32;1.80;99.90
20570;DHT22;10443;54.818;9.666;2022-11-20T08:58:03;1.70;99.90
20570;DHT22;10443;54.818;9.666;2022-11-20T09:00:30;1.70;99.90
20570;DHT22;10443;54.818;9.666;2022-11-20T09:02:58;1.70;99.90
20570;DHT22;10443;54.818;9.666;2022-11-20T09:05:27;1.70;99.90
20570;DHT22;10443;54.818;9.666;2022-11-20T09:07:58;1.60;99.90
20570;DHT22;10443;54.818;9.666;2022-11-20T09:10:26;1.70;99.90
20570;DHT22;10443;54.818;9.666;2022-11-20T09:12:53;1.70;99.90
20570;DHT22;10443;54.818;9.666;2022-11-20T09:15:22;1.60;99.90
20570;DHT22;10443;54.818;9.666;2022-11-20T09:18:02;1.70;99.90
20570;DHT22;10443;54.818;9.666;2022-11-20T09:20:31;1.80;99.90
20570;DHT22;10443;54.818;9.666;2022-11-20T09:22:58;1.80;99.90
20570;DHT22;10443;54.818;9.666;2022-11-20T09:25:25;1.90;99.90
20570;DHT22;10443;54.818;9.666;2022-11-20T09:27:56;1.90;99.90
20570;DHT22;10443;54.818;9.666;2022-11-20T09:30:23;1.90;99.90
20570;DHT22;10443;54.818;9.666;2022-11-20T09:32:50;2.00;99.90
20570;DHT22;10443;54.818;9.666;2022-11-20T09:35:17;2.00;99.90
20570;DHT22;10443;54.818;9.666;2022-11-20T09:37:45;2.00;99.90
20570;DHT22;10443;54.818;9.666;2022-11-20T09:40:26;2.00;99.90
20570;DHT22;10443;54.818;9.666;2022-11-20T09:42:56;2.10;99.90
20570;DHT22;10443;54.818;9.666;2022-11-20T09:51:35;2.30;99.90
20570;DHT22;10443;54.818;9.666;2022-11-20T09:56:49;2.30;99.90
20570;DHT22;10443;54.818;9.666;2022-11-20T09:59:44;2.30;99.90
20570;DHT22;10443;54.818;9.666;2022-11-20T10:02:26;2.40;99.90
20570;DHT22;10443;54.818;9.666;2022-11-20T10:05:02;2.50;99.90
20570;DHT22;10443;54.818;9.666;2022-11-20T10:16:02;2.40;99.90
20570;DHT22;10443;54.818;9.666;2022-11-20T10:21:39;2.40;99.90
20570;DHT22;10443;54.818;9.666;2022-11-20T10:25:10;2.40;99.90
20570;DHT22;10443;54.818;9.666;2022-11-20T10:27:36;2.40;99.90
20570;DHT22;10443;54.818;9.666;2022-11-20T10:30:14;2.50;99.90
20570;DHT22;10443;54.818;9.666;2022-11-20T10:38:51;2.60;99.90
20570;DHT22;10443;54.818;9.666;2022-11-20T10:41:28;2.50;99.90
20570;DHT22;10443;54.818;9.666;2022-11-20T10:44:15;2.60;99.90
20570;DHT22;10443;54.818;9.666;2022-11-20T10:47:04;2.60;99.90
20570;DHT22;10443;54.818;9.666;2022-11-20T10:49:34;2.60;99.90
20570;DHT22;10443;54.818;9.666;2022-11-20T10:52:17;2.60;99.90
20570;DHT22;10443;54.818;9.666;2022-11-20T10:55:53;2.60;99.90
20570;DHT22;10443;54.818;9.666;2022-11-20T10:58:04;2.60;99.90
20570;DHT22;10443;54.818;9.666;2022-11-20T11:00:34;2.60;99.90
20570;DHT22;10443;54.818;9.666;2022-11-20T11:03:00;2.60;99.90
20570;DHT22;10443;54.818;9.666;2022-11-20T11:08:28;2.60;99.90
20570;DHT22;10443;54.818;9.666;2022-11-20T11:13:42;2.70;99.90
20570;DHT22;10443;54.818;9.666;2022-11-20T11:16:24;2.70;99.90
20570;DHT22;10443;54.818;9.666;2022-11-20T11:19:02;2.80;99.90
20570;DHT22;10443;54.818;9.666;2022-11-20T11:21:30;2.80;99.90
20570;DHT22;10443;54.818;9.666;2022-11-20T11:25:36;2.70;99.90
20570;DHT22;10443;54.818;9.666;2022-11-20T11:28:23;2.50;99.90
20570;DHT22;10443;54.818;9.666;2022-11-20T11:30:54;2.60;99.90
20570;DHT22;10443;54.818;9.666;2022-11-20T11:33:23;2.70;99.90
20570;DHT22;10443;54.818;9.666;2022-11-20T11:36:04;2.70;99.90
20570;DHT22;10443;54.818;9.666;2022-11-20T11:38:44;2.80;99.90
20570;DHT22;10443;54.818;9.666;2022-11-20T11:41:21;2.90;99.90
20570;DHT22;10443;54.818;9.666;2022-11-20T11:43:55;3.00;99.90
20570;DHT22;10443;54.818;9.666;2022-11-20T11:53:12;3.20;99.90
20570;DHT22;10443;54.818;9.666;2022-11-20T11:55:47;3.20;99.90
20570;DHT22;10443;54.818;9.666;2022-11-20T11:58:46;3.10;99.90
20570;DHT22;10443;54.818;9.666;2022-11-20T12:04:04;3.10;99.90
20570;DHT22;10443;54.818;9.666;2022-11-20T12:06:34;3.20;99.90
20570;DHT22;10443;54.818;9.666;2022-11-20T12:09:05;3.20;99.90
20570;DHT22;10443;54.818;9.666;2022-11-20T12:11:45;3.20;99.90
20570;DHT22;10443;54.818;9.666;2022-11-20T12:14:37;3.20;99.90
20570;DHT22;10443;54.818;9.666;2022-11-20T12:17:07;3.30;99.90
20570;DHT22;10443;54.818;9.666;2022-11-20T12:19:35;3.30;99.90
20570;DHT22;10443;54.818;9.666;2022-11-20T12:22:19;3.30;99.90
20570;DHT22;10443;54.818;9.666;2022-11-20T12:24:59;3.30;99.90
20570;DHT22;10443;54.818;9.666;2022-11-20T12:30:53;3.20;99.90
20570;DHT22;10443;54.818;9.666;2022-11-20T12:42:18;2.90;99.90
20570;DHT22;10443;54.818;9.666;2022-11-20T12:47:45;2.90;99.90
20570;DHT22;10443;54.818;9.666;2022-11-20T12:50:18;2.90;99.90
20570;DHT22;10443;54.818;9.666;2022-11-20T12:55:47;2.80;99.90
20570;DHT22;10443;54.818;9.666;2022-11-20T13:01:16;2.80;99.90
20570;DHT22;10443;54.818;9.666;2022-11-20T13:06:55;2.60;99.90
20570;DHT22;10443;54.818;9.666;2022-11-20T13:09:23;2.60;99.90
20570;DHT22;10443;54.818;9.666;2022-11-20T13:12:11;2.70;99.90
20570;DHT22;10443;54.818;9.666;2022-11-20T13:17:28;2.60;99.90
20570;DHT22;10443;54.818;9.666;2022-11-20T13:19:57;2.60;99.90
20570;DHT22;10443;54.818;9.666;2022-11-20T13:22:29;2.60;99.90
20570;DHT22;10443;54.818;9.666;2022-11-20T13:25:10;2.50;99.90
20570;DHT22;10443;54.818;9.666;2022-11-20T13:27:48;2.50;99.90
20570;DHT22;10443;54.818;9.666;2022-11-20T13:30:18;2.40;99.90
20570;DHT22;10443;54.818;9.666;2022-11-20T13:33:09;2.40;99.90
20570;DHT22;10443;54.818;9.666;2022-11-20T13:35:57;2.50;99.90
20570;DHT22;10443;54.818;9.666;2022-11-20T13:38:23;2.50;99.90
20570;DHT22;10443;54.818;9.666;2022-11-20T13:41:00;2.50;99.90
20570;DHT22;10443;54.818;9.666;2022-11-20T13:43:47;2.50;99.90
20570;DHT22;10443;54.818;9.666;2022-11-20T13:46:14;2.50;99.90
20570;DHT22;10443;54.818;9.666;2022-11-20T13:48:43;2.60;99.90
20570;DHT22;10443;54.818;9.666;2022-11-20T13:51:34;2.60;99.90
20570;DHT22;10443;54.818;9.666;2022-11-20T14:01:48;2.50;99.90
20570;DHT22;10443;54.818;9.666;2022-11-20T14:04:18;2.00;99.90
20570;DHT22;10443;54.818;9.666;2022-11-20T14:06:48;2.40;99.90
20570;DHT22;10443;54.818;9.666;2022-11-20T14:09:31;2.50;99.90
20570;DHT22;10443;54.818;9.666;2022-11-20T14:11:59;2.40;99.90
20570;DHT22;10443;54.818;9.666;2022-11-20T14:14:27;3.30;99.90
20570;DHT22;10443;54.818;9.666;2022-11-20T14:17:07;2.40;99.90
20570;DHT22;10443;54.818;9.666;2022-11-20T14:19:34;2.40;99.90
20570;DHT22;10443;54.818;9.666;2022-11-20T14:22:29;2.40;99.90
20570;DHT22;10443;54.818;9.666;2022-11-20T14:27:45;2.40;99.90
20570;DHT22;10443;54.818;9.666;2022-11-20T14:30:20;2.10;99.90
20570;DHT22;10443;54.818;9.666;2022-11-20T14:32:48;2.30;99.90
20570;DHT22;10443;54.818;9.666;2022-11-20T14:35:36;2.30;99.90
20570;DHT22;10443;54.818;9.666;2022-11-20T14:38:10;2.30;99.90
20570;DHT22;10443;54.818;9.666;2022-11-20T14:40:38;2.30;99.90
20570;DHT22;10443;54.818;9.666;2022-11-20T14:45:56;2.20;99.90
20570;DHT22;10443;54.818;9.666;2022-11-20T14:48:28;2.20;99.90
20570;DHT22;10443;54.818;9.666;2022-11-20T14:50:56;2.10;99.90
20570;DHT22;10443;54.818;9.666;2022-11-20T14:53:24;2.00;99.90
20570;DHT22;10443;54.818;9.666;2022-11-20T14:55:59;2.00;99.90
20570;DHT22;10443;54.818;9.666;2022-11-20T14:58:29;1.90;99.90
20570;DHT22;10443;54.818;9.666;2022-11-20T15:01:01;1.90;99.90
20570;DHT22;10443;54.818;9.666;2022-11-20T15:03:34;1.90;99.90
20570;DHT22;10443;54.818;9.666;2022-11-20T15:06:02;1.80;99.90
20570;DHT22;10443;54.818;9.666;2022-11-20T15:08:29;1.70;99.90
20570;DHT22;10443;54.818;9.666;2022-11-20T15:10:56;1.70;99.90
20570;DHT22;10443;54.818;9.666;2022-11-20T15:13:32;1.60;99.90
20570;DHT22;10443;54.818;9.666;2022-11-20T15:16:00;1.50;99.90
20570;DHT22;10443;54.818;9.666;2022-11-20T15:18:39;1.50;99.90
20570;DHT22;10443;54.818;9.666;2022-11-20T15:21:13;1.50;99.90
20570;DHT22;10443;54.818;9.666;2022-11-20T15:23:40;1.40;99.90
20570;DHT22;10443;54.818;9.666;2022-11-20T15:26:07;1.30;99.90
20570;DHT22;10443;54.818;9.666;2022-11-20T15:28:36;1.30;99.90
20570;DHT22;10443;54.818;9.666;2022-11-20T15:31:04;1.20;99.90
20570;DHT22;10443;54.818;9.666;2022-11-20T15:33:32;1.20;99.90
20570;DHT22;10443;54.818;9.666;2022-11-20T15:36:00;1.20;99.90
20570;DHT22;10443;54.818;9.666;2022-11-20T15:38:26;1.10;99.90
20570;DHT22;10443;54.818;9.666;2022-11-20T15:40:53;1.10;99.90
20570;DHT22;10443;54.818;9.666;2022-11-20T15:43:20;1.10;99.90
20570;DHT22;10443;54.818;9.666;2022-11-20T15:46:00;1.10;99.90
20570;DHT22;10443;54.818;9.666;2022-11-20T15:48:29;1.00;99.90
20570;DHT22;10443;54.818;9.666;2022-11-20T15:50:58;1.00;99.90
20570;DHT22;10443;54.818;9.666;2022-11-20T15:53:26;1.00;99.90
20570;DHT22;10443;54.818;9.666;2022-11-20T15:55:53;1.00;99.90
20570;DHT22;10443;54.818;9.666;2022-11-20T15:58:19;1.00;99.90
20570;DHT22;10443;54.818;9.666;2022-11-20T16:00:46;1.00;99.90
20570;DHT22;10443;54.818;9.666;2022-11-20T16:03:14;1.00;99.90
20570;DHT22;10443;54.818;9.666;2022-11-20T16:05:41;1.00;99.90
20570;DHT22;10443;54.818;9.666;2022-11-20T16:08:07;1.00;99.90
20570;DHT22;10443;54.818;9.666;2022-11-20T16:10:37;1.00;99.90
20570;DHT22;10443;54.818;9.666;2022-11-20T16:13:09;1.00;99.90
20570;DHT22;10443;54.818;9.666;2022-11-20T16:15:57;1.00;99.90
20570;DHT22;10443;54.818;9.666;2022-11-20T16:18:25;1.00;99.90
20570;DHT22;10443;54.818;9.666;2022-11-20T16:20:52;0.90;99.90
20570;DHT22;10443;54.818;9.666;2022-11-20T16:23:20;0.90;99.90
20570;DHT22;10443;54.818;9.666;2022-11-20T16:25:47;0.90;99.90
20570;DHT22;10443;54.818;9.666;2022-11-20T16:28:14;0.90;99.90
20570;DHT22;10443;54.818;9.666;2022-11-20T16:30:44;0.90;99.90
20570;DHT22;10443;54.818;9.666;2022-11-20T16:33:15;0.90;99.90
20570;DHT22;10443;54.818;9.666;2022-11-20T16:35:43;0.90;99.90
20570;DHT22;10443;54.818;9.666;2022-11-20T16:38:10;0.80;99.90
20570;DHT22;10443;54.818;9.666;2022-11-20T16:40:37;0.90;99.90
20570;DHT22;10443;54.818;9.666;2022-11-20T16:43:09;1.60;99.90
20570;DHT22;10443;54.818;9.666;2022-11-20T16:45:40;0.80;99.90
20570;DHT22;10443;54.818;9.666;2022-11-20T16:48:11;0.80;99.90
20570;DHT22;10443;54.818;9.666;2022-11-20T16:50:48;0.70;99.90
20570;DHT22;10443;54.818;9.666;2022-11-20T16:53:16;0.80;99.90
20570;DHT22;10443;54.818;9.666;2022-11-20T16:55:42;0.80;99.90
20570;DHT22;10443;54.818;9.666;2022-11-20T16:58:09;0.80;99.90
20570;DHT22;10443;54.818;9.666;2022-11-20T17:00:39;0.70;99.90
20570;DHT22;10443;54.818;9.666;2022-11-20T17:03:06;0.70;99.90
20570;DHT22;10443;54.818;9.666;2022-11-20T17:05:33;0.60;99.90
20570;DHT22;10443;54.818;9.666;2022-11-20T17:08:00;0.60;99.90
20570;DHT22;10443;54.818;9.666;2022-11-20T17:10:27;0.60;99.90
20570;DHT22;10443;54.818;9.666;2022-11-20T17:12:54;0.60;99.90
20570;DHT22;10443;54.818;9.666;2022-11-20T17:15:20;0.50;99.90
20570;DHT22;10443;54.818;9.666;2022-11-20T17:17:47;0.50;99.90
20570;DHT22;10443;54.818;9.666;2022-11-20T17:20:13;0.50;99.90
20570;DHT22;10443;54.818;9.666;2022-11-20T17:22:40;0.50;99.90
20570;DHT22;10443;54.818;9.666;2022-11-20T17:25:07;0.50;99.90
20570;DHT22;10443;54.818;9.666;2022-11-20T17:27:33;0.40;99.90
20570;DHT22;10443;54.818;9.666;2022-11-20T17:30:00;0.40;99.90
20570;DHT22;10443;54.818;9.666;2022-11-20T17:32:27;0.40;99.90
20570;DHT22;10443;54.818;9.666;2022-11-20T17:34:54;0.40;99.90
20570;DHT22;10443;54.818;9.666;2022-11-20T17:37:20;0.30;99.90
20570;DHT22;10443;54.818;9.666;2022-11-20T17:39:47;0.30;99.90
20570;DHT22;10443;54.818;9.666;2022-11-20T17:42:14;0.30;99.90